sensor_id;sensor_type;location;lat;lon;timestamp;pressure;altitude;pressure_sealevel;temperature;humidity
6387;BME280;3226;42.162;24.756;2023-08-01T00:00:06;99183.41;;;24.29;66.88
6387;BME280;3226;42.162;24.756;2023-08-01T00:02:35;99181.88;;;24.33;66.41
6387;BME280;3226;42.162;24.756;2023-08-01T00:05:05;99180.13;;;24.27;66.13
6387;BME280;3226;42.162;24.756;2023-08-01T00:07:33;99175.38;;;24.29;65.59
6387;BME280;3226;42.162;24.756;2023-08-01T00:10:04;99173.28;;;24.31;65.10
6387;BME280;3226;42.162;24.756;2023-08-01T00:12:33;99174.63;;;24.21;65.61
6387;BME280;3226;42.162;24.756;2023-08-01T00:15:01;99175.19;;;24.11;65.71
6387;BME280;3226;42.162;24.756;2023-08-01T00:17:29;99167.84;;;24.07;66.36
6387;BME280;3226;42.162;24.756;2023-08-01T00:19:57;99168.44;;;24.09;66.11
6387;BME280;3226;42.162;24.756;2023-08-01T00:22:26;99142.66;;;23.96;66.30
6387;BME280;3226;42.162;24.756;2023-08-01T00:24:55;99155.97;;;24.03;66.08
6387;BME280;3226;42.162;24.756;2023-08-01T00:27:23;99151.72;;;23.95;65.75
6387;BME280;3226;42.162;24.756;2023-08-01T00:29:51;99159.44;;;24.03;64.01
6387;BME280;3226;42.162;24.756;2023-08-01T00:32:19;99153.88;;;24.05;64.11
6387;BME280;3226;42.162;24.756;2023-08-01T00:34:50;99153.91;;;23.86;64.92
6387;BME280;3226;42.162;24.756;2023-08-01T00:37:18;99149.16;;;23.88;64.68
6387;BME280;3226;42.162;24.756;2023-08-01T00:39:47;99145.66;;;23.88;64.00
6387;BME280;3226;42.162;24.756;2023-08-01T00:42:16;99140.19;;;23.82;63.29
6387;BME280;3226;42.162;24.756;2023-08-01T00:44:43;99150.94;;;23.94;62.90
6387;BME280;3226;42.162;24.756;2023-08-01T00:47:13;99122.84;;;23.85;62.35
6387;BME280;3226;42.162;24.756;2023-08-01T00:49:42;99133.00;;;23.95;62.20
6387;BME280;3226;42.162;24.756;2023-08-01T00:52:10;99142.81;;;24.01;62.14
6387;BME280;3226;42.162;24.756;2023-08-01T00:54:38;99132.81;;;23.96;62.39
6387;BME280;3226;42.162;24.756;2023-08-01T00:57:08;99131.91;;;24.03;61.72
6387;BME280;3226;42.162;24.756;2023-08-01T00:59:37;99130.88;;;24.04;61.83
6387;BME280;3226;42.162;24.756;2023-08-01T01:02:05;99135.94;;;23.93;61.97
6387;BME280;3226;42.162;24.756;2023-08-01T01:04:33;99112.31;;;23.90;62.01
6387;BME280;3226;42.162;24.756;2023-08-01T01:07:03;99120.38;;;24.02;61.64
6387;BME280;3226;42.162;24.756;2023-08-01T01:09:31;99103.72;;;23.88;61.54
6387;BME280;3226;42.162;24.756;2023-08-01T01:11:59;99107.28;;;23.82;61.68
6387;BME280;3226;42.162;24.756;2023-08-01T01:14:29;99096.97;;;23.86;61.29
6387;BME280;3226;42.162;24.756;2023-08-01T01:16:57;99109.94;;;23.82;61.88
6387;BME280;3226;42.162;24.756;2023-08-01T01:19:26;99105.66;;;23.81;61.89
6387;BME280;3226;42.162;24.756;2023-08-01T01:21:56;99105.53;;;23.76;62.15
6387;BME280;3226;42.162;24.756;2023-08-01T01:24:38;99089.47;;;23.76;62.40
6387;BME280;3226;42.162;24.756;2023-08-01T01:27:08;99092.41;;;23.74;62.09
6387;BME280;3226;42.162;24.756;2023-08-01T01:29:37;99087.94;;;23.68;62.61
6387;BME280;3226;42.162;24.756;2023-08-01T01:32:06;99082.06;;;23.47;63.34
6387;BME280;3226;42.162;24.756;2023-08-01T01:34:35;99090.59;;;23.56;63.51
6387;BME280;3226;42.162;24.756;2023-08-01T01:37:04;99085.38;;;23.61;62.74
6387;BME280;3226;42.162;24.756;2023-08-01T01:39:32;99084.66;;;23.54;63.10
6387;BME280;3226;42.162;24.756;2023-08-01T01:42:01;99088.19;;;23.48;63.48
6387;BME280;3226;42.162;24.756;2023-08-01T01:44:29;99093.53;;;23.36;63.55
6387;BME280;3226;42.162;24.756;2023-08-01T01:46:57;99088.59;;;23.33;63.56
6387;BME280;3226;42.162;24.756;2023-08-01T01:49:25;99090.31;;;23.27;63.96
6387;BME280;3226;42.162;24.756;2023-08-01T01:51:53;99078.75;;;23.33;63.87
6387;BME280;3226;42.162;24.756;2023-08-01T01:54:25;99089.13;;;23.23;64.05
6387;BME280;3226;42.162;24.756;2023-08-01T01:56:53;99088.53;;;23.21;64.22
6387;BME280;3226;42.162;24.756;2023-08-01T01:59:21;99068.13;;;23.08;64.18
6387;BME280;3226;42.162;24.756;2023-08-01T02:01:49;99086.44;;;23.23;64.38
6387;BME280;3226;42.162;24.756;2023-08-01T02:04:17;99090.16;;;23.22;64.44
6387;BME280;3226;42.162;24.756;2023-08-01T02:06:45;99097.56;;;23.20;64.53
6387;BME280;3226;42.162;24.756;2023-08-01T02:09:14;99096.31;;;23.22;64.10
6387;BME280;3226;42.162;24.756;2023-08-01T02:11:43;99092.44;;;23.18;64.14
6387;BME280;3226;42.162;24.756;2023-08-01T02:14:11;99096.31;;;23.22;64.29
6387;BME280;3226;42.162;24.756;2023-08-01T02:16:40;99096.75;;;23.19;64.16
6387;BME280;3226;42.162;24.756;2023-08-01T02:19:08;99090.69;;;23.12;64.33
6387;BME280;3226;42.162;24.756;2023-08-01T02:21:36;99083.56;;;23.06;64.46
6387;BME280;3226;42.162;24.756;2023-08-01T02:24:04;99100.31;;;23.13;64.23
6387;BME280;3226;42.162;24.756;2023-08-01T02:26:32;99107.50;;;23.13;64.27
6387;BME280;3226;42.162;24.756;2023-08-01T02:29:02;99100.31;;;23.13;63.94
6387;BME280;3226;42.162;24.756;2023-08-01T02:31:30;99099.59;;;23.06;64.15
6387;BME280;3226;42.162;24.756;2023-08-01T02:33:58;99099.78;;;23.04;64.14
6387;BME280;3226;42.162;24.756;2023-08-01T02:36:26;99104.91;;;23.06;63.69
6387;BME280;3226;42.162;24.756;2023-08-01T02:38:54;99104.31;;;22.85;64.05
6387;BME280;3226;42.162;24.756;2023-08-01T02:41:22;99110.25;;;22.87;63.72
6387;BME280;3226;42.162;24.756;2023-08-01T02:43:49;99112.38;;;22.78;63.58
6387;BME280;3226;42.162;24.756;2023-08-01T02:46:18;99104.97;;;22.80;63.69
6387;BME280;3226;42.162;24.756;2023-08-01T02:48:46;99106.81;;;22.80;63.98
6387;BME280;3226;42.162;24.756;2023-08-01T02:51:14;99115.91;;;22.72;64.26
6387;BME280;3226;42.162;24.756;2023-08-01T02:53:42;99120.31;;;22.66;64.98
6387;BME280;3226;42.162;24.756;2023-08-01T02:56:10;99127.00;;;22.50;65.38
6387;BME280;3226;42.162;24.756;2023-08-01T02:58:38;99127.91;;;22.37;65.79
6387;BME280;3226;42.162;24.756;2023-08-01T03:01:06;99127.88;;;22.12;67.55
6387;BME280;3226;42.162;24.756;2023-08-01T03:03:37;99136.28;;;22.09;67.92
6387;BME280;3226;42.162;24.756;2023-08-01T03:06:06;99132.09;;;21.88;68.87
6387;BME280;3226;42.162;24.756;2023-08-01T03:08:34;99128.53;;;21.62;70.70
6387;BME280;3226;42.162;24.756;2023-08-01T03:11:02;99132.25;;;21.54;72.10
6387;BME280;3226;42.162;24.756;2023-08-01T03:13:30;99137.75;;;21.59;71.76
6387;BME280;3226;42.162;24.756;2023-08-01T03:15:58;99139.63;;;21.52;73.03
6387;BME280;3226;42.162;24.756;2023-08-01T03:18:26;99137.53;;;21.67;72.15
6387;BME280;3226;42.162;24.756;2023-08-01T03:20:55;99132.59;;;21.78;71.53
6387;BME280;3226;42.162;24.756;2023-08-01T03:23:23;99145.84;;;21.85;71.29
6387;BME280;3226;42.162;24.756;2023-08-01T03:25:51;99144.16;;;21.97;71.00
6387;BME280;3226;42.162;24.756;2023-08-01T03:28:19;99150.91;;;22.00;70.99
6387;BME280;3226;42.162;24.756;2023-08-01T03:30:48;99145.66;;;21.86;71.17
6387;BME280;3226;42.162;24.756;2023-08-01T03:33:17;99149.50;;;21.97;71.36
6387;BME280;3226;42.162;24.756;2023-08-01T03:35:45;99148.38;;;22.12;70.81
6387;BME280;3226;42.162;24.756;2023-08-01T03:38:14;99158.03;;;22.06;70.82
6387;BME280;3226;42.162;24.756;2023-08-01T03:40:42;99147.00;;;22.02;70.93
6387;BME280;3226;42.162;24.756;2023-08-01T03:43:10;99154.09;;;22.15;70.22
6387;BME280;3226;42.162;24.756;2023-08-01T03:45:38;99151.59;;;22.20;69.30
6387;BME280;3226;42.162;24.756;2023-08-01T03:48:06;99160.47;;;22.14;69.41
6387;BME280;3226;42.162;24.756;2023-08-01T03:50:34;99160.38;;;22.28;68.39
6387;BME280;3226;42.162;24.756;2023-08-01T03:53:02;99156.72;;;22.22;68.29
6387;BME280;3226;42.162;24.756;2023-08-01T03:55:32;99156.97;;;22.14;68.55
6387;BME280;3226;42.162;24.756;2023-08-01T03:58:00;99158.91;;;22.32;67.07
6387;BME280;3226;42.162;24.756;2023-08-01T04:00:28;99157.50;;;22.29;67.00
6387;BME280;3226;42.162;24.756;2023-08-01T04:02:59;99153.56;;;22.32;66.97
6387;BME280;3226;42.162;24.756;2023-08-01T04:05:28;99154.88;;;22.22;67.66
6387;BME280;3226;42.162;24.756;2023-08-01T04:07:56;99157.84;;;22.39;67.23
6387;BME280;3226;42.162;24.756;2023-08-01T04:10:24;99156.94;;;22.52;67.23
6387;BME280;3226;42.162;24.756;2023-08-01T04:12:54;99150.69;;;22.65;66.74
6387;BME280;3226;42.162;24.756;2023-08-01T04:15:22;99147.25;;;22.58;66.77
6387;BME280;3226;42.162;24.756;2023-08-01T04:17:50;99159.28;;;22.67;66.64
6387;BME280;3226;42.162;24.756;2023-08-01T04:20:18;99153.56;;;22.64;66.43
6387;BME280;3226;42.162;24.756;2023-08-01T04:22:46;99152.75;;;22.63;66.35
6387;BME280;3226;42.162;24.756;2023-08-01T04:25:14;99158.78;;;22.77;66.29
6387;BME280;3226;42.162;24.756;2023-08-01T04:27:42;99161.72;;;22.69;66.49
6387;BME280;3226;42.162;24.756;2023-08-01T04:30:11;99167.22;;;22.74;66.21
6387;BME280;3226;42.162;24.756;2023-08-01T04:32:39;99167.31;;;22.86;65.87
6387;BME280;3226;42.162;24.756;2023-08-01T04:35:08;99166.34;;;22.80;65.86
6387;BME280;3226;42.162;24.756;2023-08-01T04:37:36;99166.78;;;22.77;66.31
6387;BME280;3226;42.162;24.756;2023-08-01T04:40:05;99172.91;;;22.85;66.26
6387;BME280;3226;42.162;24.756;2023-08-01T04:42:33;99173.22;;;22.95;66.41
6387;BME280;3226;42.162;24.756;2023-08-01T04:45:01;99169.66;;;23.01;66.18
6387;BME280;3226;42.162;24.756;2023-08-01T04:47:30;99171.97;;;23.16;65.42
6387;BME280;3226;42.162;24.756;2023-08-01T04:49:58;99170.81;;;23.31;64.25
6387;BME280;3226;42.162;24.756;2023-08-01T04:52:26;99162.13;;;23.35;64.00
6387;BME280;3226;42.162;24.756;2023-08-01T04:54:54;99156.59;;;23.37;63.91
6387;BME280;3226;42.162;24.756;2023-08-01T04:57:22;99167.47;;;23.35;64.38
6387;BME280;3226;42.162;24.756;2023-08-01T04:59:50;99163.91;;;23.42;63.73
6387;BME280;3226;42.162;24.756;2023-08-01T05:02:18;99174.16;;;23.45;63.47
6387;BME280;3226;42.162;24.756;2023-08-01T05:04:47;99173.34;;;23.44;63.25
6387;BME280;3226;42.162;24.756;2023-08-01T05:07:15;99167.09;;;23.50;63.26
6387;BME280;3226;42.162;24.756;2023-08-01T05:09:43;99174.91;;;23.52;63.76
6387;BME280;3226;42.162;24.756;2023-08-01T05:12:11;99168.34;;;23.48;63.49
6387;BME280;3226;42.162;24.756;2023-08-01T05:14:39;99173.56;;;23.61;63.43
6387;BME280;3226;42.162;24.756;2023-08-01T05:17:07;99180.88;;;23.66;63.00
6387;BME280;3226;42.162;24.756;2023-08-01T05:19:35;99184.63;;;23.46;63.99
6387;BME280;3226;42.162;24.756;2023-08-01T05:22:05;99174.31;;;23.31;64.43
6387;BME280;3226;42.162;24.756;2023-08-01T05:24:33;99185.72;;;23.38;64.81
6387;BME280;3226;42.162;24.756;2023-08-01T05:27:01;99186.19;;;23.54;63.86
6387;BME280;3226;42.162;24.756;2023-08-01T05:29:29;99184.78;;;23.51;64.06
6387;BME280;3226;42.162;24.756;2023-08-01T05:31:57;99191.47;;;23.42;64.40
6387;BME280;3226;42.162;24.756;2023-08-01T05:34:25;99186.34;;;23.59;64.31
6387;BME280;3226;42.162;24.756;2023-08-01T05:36:53;99183.53;;;23.85;63.12
6387;BME280;3226;42.162;24.756;2023-08-01T05:39:22;99191.28;;;24.23;61.84
6387;BME280;3226;42.162;24.756;2023-08-01T05:41:50;99198.50;;;24.77;58.63
6387;BME280;3226;42.162;24.756;2023-08-01T05:44:18;99195.72;;;24.84;57.63
6387;BME280;3226;42.162;24.756;2023-08-01T05:46:46;99196.72;;;24.71;57.92
6387;BME280;3226;42.162;24.756;2023-08-01T05:49:14;99192.97;;;24.48;58.05
6387;BME280;3226;42.162;24.756;2023-08-01T05:51:42;99186.09;;;24.40;58.24
6387;BME280;3226;42.162;24.756;2023-08-01T05:54:10;99189.16;;;24.68;57.68
6387;BME280;3226;42.162;24.756;2023-08-01T05:56:40;99191.75;;;24.87;57.14
6387;BME280;3226;42.162;24.756;2023-08-01T05:59:08;99183.69;;;24.63;57.17
6387;BME280;3226;42.162;24.756;2023-08-01T06:01:36;99190.41;;;24.53;57.50
6387;BME280;3226;42.162;24.756;2023-08-01T06:04:05;99188.97;;;24.81;56.63
6387;BME280;3226;42.162;24.756;2023-08-01T06:06:33;99199.69;;;25.05;55.94
6387;BME280;3226;42.162;24.756;2023-08-01T06:09:01;99194.78;;;25.14;55.70
6387;BME280;3226;42.162;24.756;2023-08-01T06:11:29;99194.84;;;25.43;54.90
6387;BME280;3226;42.162;24.756;2023-08-01T06:13:58;99158.72;;;24.93;54.71
6387;BME280;3226;42.162;24.756;2023-08-01T06:16:26;99186.22;;;25.41;54.78
6387;BME280;3226;42.162;24.756;2023-08-01T06:18:54;99182.97;;;25.63;54.13
6387;BME280;3226;42.162;24.756;2023-08-01T06:21:23;99179.50;;;25.50;53.75
6387;BME280;3226;42.162;24.756;2023-08-01T06:23:51;99177.66;;;25.80;53.39
6387;BME280;3226;42.162;24.756;2023-08-01T06:26:19;99176.88;;;25.96;51.90
6387;BME280;3226;42.162;24.756;2023-08-01T06:28:47;99172.34;;;25.68;52.19
6387;BME280;3226;42.162;24.756;2023-08-01T06:31:16;99180.78;;;25.36;53.20
6387;BME280;3226;42.162;24.756;2023-08-01T06:33:44;99180.44;;;25.32;53.67
6387;BME280;3226;42.162;24.756;2023-08-01T06:36:12;99184.03;;;25.38;53.27
6387;BME280;3226;42.162;24.756;2023-08-01T06:38:43;99178.47;;;25.16;53.72
6387;BME280;3226;42.162;24.756;2023-08-01T06:41:11;99183.81;;;25.27;53.12
6387;BME280;3226;42.162;24.756;2023-08-01T06:43:39;99174.25;;;25.44;52.74
6387;BME280;3226;42.162;24.756;2023-08-01T06:46:07;99154.81;;;25.36;52.16
6387;BME280;3226;42.162;24.756;2023-08-01T06:48:37;99172.69;;;26.01;50.39
6387;BME280;3226;42.162;24.756;2023-08-01T06:51:05;99176.38;;;27.36;46.64
6387;BME280;3226;42.162;24.756;2023-08-01T06:53:33;99180.06;;;28.19;44.79
6387;BME280;3226;42.162;24.756;2023-08-01T06:56:01;99181.03;;;28.13;44.04
6387;BME280;3226;42.162;24.756;2023-08-01T06:58:29;99178.69;;;27.05;46.57
6387;BME280;3226;42.162;24.756;2023-08-01T07:00:57;99168.28;;;26.11;47.83
6387;BME280;3226;42.162;24.756;2023-08-01T07:03:25;99170.97;;;26.11;48.19
6387;BME280;3226;42.162;24.756;2023-08-01T07:05:55;99168.13;;;26.30;47.71
6387;BME280;3226;42.162;24.756;2023-08-01T07:08:23;99169.47;;;26.16;48.93
6387;BME280;3226;42.162;24.756;2023-08-01T07:10:51;99167.59;;;25.87;47.69
6387;BME280;3226;42.162;24.756;2023-08-01T07:13:19;99163.41;;;25.38;49.72
6387;BME280;3226;42.162;24.756;2023-08-01T07:15:48;99167.16;;;25.37;49.04
6387;BME280;3226;42.162;24.756;2023-08-01T07:18:16;99168.28;;;25.65;49.94
6387;BME280;3226;42.162;24.756;2023-08-01T07:20:45;99174.69;;;25.93;48.60
6387;BME280;3226;42.162;24.756;2023-08-01T07:23:14;99166.56;;;26.17;48.63
6387;BME280;3226;42.162;24.756;2023-08-01T07:25:42;99159.16;;;26.41;48.37
6387;BME280;3226;42.162;24.756;2023-08-01T07:28:10;99158.13;;;26.60;47.06
6387;BME280;3226;42.162;24.756;2023-08-01T07:30:38;99165.03;;;26.73;46.55
6387;BME280;3226;42.162;24.756;2023-08-01T07:33:06;99164.69;;;26.86;45.82
6387;BME280;3226;42.162;24.756;2023-08-01T07:35:35;99158.16;;;26.82;46.35
6387;BME280;3226;42.162;24.756;2023-08-01T07:38:03;99154.22;;;26.67;46.50
6387;BME280;3226;42.162;24.756;2023-08-01T07:40:32;99155.53;;;27.04;46.14
6387;BME280;3226;42.162;24.756;2023-08-01T07:43:00;99151.75;;;27.00;46.25
6387;BME280;3226;42.162;24.756;2023-08-01T07:45:28;99153.47;;;26.72;47.24
6387;BME280;3226;42.162;24.756;2023-08-01T07:47:56;99145.16;;;26.74;47.28
6387;BME280;3226;42.162;24.756;2023-08-01T07:50:24;99139.56;;;26.75;47.51
6387;BME280;3226;42.162;24.756;2023-08-01T07:52:53;99145.66;;;26.70;47.04
6387;BME280;3226;42.162;24.756;2023-08-01T07:55:21;99142.06;;;26.99;46.72
6387;BME280;3226;42.162;24.756;2023-08-01T07:57:50;99145.59;;;27.22;45.99
6387;BME280;3226;42.162;24.756;2023-08-01T08:00:18;99145.69;;;27.32;44.79
6387;BME280;3226;42.162;24.756;2023-08-01T08:02:47;99146.03;;;27.36;45.15
6387;BME280;3226;42.162;24.756;2023-08-01T08:05:15;99132.47;;;27.48;44.92
6387;BME280;3226;42.162;24.756;2023-08-01T08:07:43;99130.72;;;27.59;45.27
6387;BME280;3226;42.162;24.756;2023-08-01T08:10:11;99127.09;;;27.48;45.66
6387;BME280;3226;42.162;24.756;2023-08-01T08:12:39;99135.94;;;27.70;46.04
6387;BME280;3226;42.162;24.756;2023-08-01T08:15:09;99129.56;;;27.77;45.38
6387;BME280;3226;42.162;24.756;2023-08-01T08:17:37;99122.75;;;27.96;44.90
6387;BME280;3226;42.162;24.756;2023-08-01T08:20:06;99129.19;;;27.95;45.24
6387;BME280;3226;42.162;24.756;2023-08-01T08:22:34;99125.09;;;27.88;45.47
6387;BME280;3226;42.162;24.756;2023-08-01T08:25:02;99118.28;;;28.07;45.15
6387;BME280;3226;42.162;24.756;2023-08-01T08:27:30;99120.88;;;28.24;44.67
6387;BME280;3226;42.162;24.756;2023-08-01T08:29:58;99118.81;;;28.37;44.02
6387;BME280;3226;42.162;24.756;2023-08-01T08:32:28;99118.22;;;28.30;43.94
6387;BME280;3226;42.162;24.756;2023-08-01T08:34:56;99112.09;;;28.39;44.15
6387;BME280;3226;42.162;24.756;2023-08-01T08:37:24;99083.53;;;28.33;44.25
6387;BME280;3226;42.162;24.756;2023-08-01T08:39:52;99111.16;;;28.61;43.21
6387;BME280;3226;42.162;24.756;2023-08-01T08:42:20;99109.94;;;28.79;42.48
6387;BME280;3226;42.162;24.756;2023-08-01T08:44:50;99107.56;;;28.88;42.90
6387;BME280;3226;42.162;24.756;2023-08-01T08:47:25;99086.44;;;28.69;42.98
6387;BME280;3226;42.162;24.756;2023-08-01T08:49:56;99107.75;;;28.76;42.07
6387;BME280;3226;42.162;24.756;2023-08-01T08:52:25;99102.34;;;28.76;42.30
6387;BME280;3226;42.162;24.756;2023-08-01T08:54:53;99095.72;;;28.84;41.84
6387;BME280;3226;42.162;24.756;2023-08-01T08:57:22;99094.84;;;28.78;42.62
6387;BME280;3226;42.162;24.756;2023-08-01T08:59:51;99077.63;;;28.36;42.20
6387;BME280;3226;42.162;24.756;2023-08-01T09:02:20;99091.00;;;28.64;42.84
6387;BME280;3226;42.162;24.756;2023-08-01T09:04:49;99092.50;;;28.92;41.16
6387;BME280;3226;42.162;24.756;2023-08-01T09:07:20;99089.06;;;29.02;40.30
6387;BME280;3226;42.162;24.756;2023-08-01T09:09:51;99085.94;;;28.78;41.03
6387;BME280;3226;42.162;24.756;2023-08-01T09:12:19;99082.91;;;28.26;41.06
6387;BME280;3226;42.162;24.756;2023-08-01T09:14:50;99078.41;;;28.32;41.06
6387;BME280;3226;42.162;24.756;2023-08-01T09:17:18;99075.47;;;28.33;40.83
6387;BME280;3226;42.162;24.756;2023-08-01T09:19:46;99073.94;;;28.53;40.61
6387;BME280;3226;42.162;24.756;2023-08-01T09:22:14;99071.22;;;28.91;40.84
6387;BME280;3226;42.162;24.756;2023-08-01T09:24:51;99064.41;;;29.52;39.46
6387;BME280;3226;42.162;24.756;2023-08-01T09:27:21;99065.31;;;30.20;38.94
6387;BME280;3226;42.162;24.756;2023-08-01T09:29:50;99055.84;;;30.17;37.00
6387;BME280;3226;42.162;24.756;2023-08-01T09:32:18;99062.50;;;30.82;36.18
6387;BME280;3226;42.162;24.756;2023-08-01T09:34:46;99060.47;;;31.19;35.40
6387;BME280;3226;42.162;24.756;2023-08-01T09:37:15;99051.38;;;30.89;35.45
6387;BME280;3226;42.162;24.756;2023-08-01T09:39:54;99050.88;;;30.81;35.50
6387;BME280;3226;42.162;24.756;2023-08-01T09:42:22;99048.69;;;30.83;35.53
6387;BME280;3226;42.162;24.756;2023-08-01T09:44:50;99044.41;;;30.77;36.75
6387;BME280;3226;42.162;24.756;2023-08-01T09:47:18;99035.78;;;30.70;36.48
6387;BME280;3226;42.162;24.756;2023-08-01T09:49:48;99034.44;;;30.67;37.21
6387;BME280;3226;42.162;24.756;2023-08-01T09:52:26;99027.97;;;30.53;37.21
6387;BME280;3226;42.162;24.756;2023-08-01T09:54:56;99030.44;;;30.44;38.17
6387;BME280;3226;42.162;24.756;2023-08-01T09:57:27;99026.41;;;30.26;37.68
6387;BME280;3226;42.162;24.756;2023-08-01T09:59:56;99022.31;;;30.44;38.33
6387;BME280;3226;42.162;24.756;2023-08-01T10:02:26;99017.53;;;30.15;39.22
6387;BME280;3226;42.162;24.756;2023-08-01T10:04:54;99026.72;;;30.09;39.33
6387;BME280;3226;42.162;24.756;2023-08-01T10:07:26;99014.56;;;29.85;39.38
6387;BME280;3226;42.162;24.756;2023-08-01T10:09:59;99002.41;;;29.93;38.90
6387;BME280;3226;42.162;24.756;2023-08-01T10:12:27;99013.22;;;30.04;38.91
6387;BME280;3226;42.162;24.756;2023-08-01T10:14:57;99010.22;;;30.26;39.08
6387;BME280;3226;42.162;24.756;2023-08-01T10:17:26;99004.56;;;30.12;38.66
6387;BME280;3226;42.162;24.756;2023-08-01T10:19:56;99009.41;;;29.99;39.42
6387;BME280;3226;42.162;24.756;2023-08-01T10:22:26;98999.16;;;29.86;38.97
6387;BME280;3226;42.162;24.756;2023-08-01T10:24:54;99001.88;;;29.96;39.56
6387;BME280;3226;42.162;24.756;2023-08-01T10:27:24;98995.91;;;30.20;39.56
6387;BME280;3226;42.162;24.756;2023-08-01T10:29:59;98995.38;;;30.23;39.18
6387;BME280;3226;42.162;24.756;2023-08-01T10:32:31;98987.00;;;30.20;38.73
6387;BME280;3226;42.162;24.756;2023-08-01T10:35:00;98986.19;;;30.19;37.98
6387;BME280;3226;42.162;24.756;2023-08-01T10:37:38;98986.22;;;29.98;38.78
6387;BME280;3226;42.162;24.756;2023-08-01T10:40:08;98976.19;;;30.30;39.18
6387;BME280;3226;42.162;24.756;2023-08-01T10:42:40;98977.00;;;30.31;38.37
6387;BME280;3226;42.162;24.756;2023-08-01T10:45:20;98956.25;;;30.15;38.60
6387;BME280;3226;42.162;24.756;2023-08-01T10:47:48;98971.31;;;30.32;38.73
6387;BME280;3226;42.162;24.756;2023-08-01T10:50:17;98963.44;;;30.46;38.09
6387;BME280;3226;42.162;24.756;2023-08-01T10:52:45;98952.91;;;30.50;37.64
6387;BME280;3226;42.162;24.756;2023-08-01T10:55:13;98936.38;;;30.67;36.80
6387;BME280;3226;42.162;24.756;2023-08-01T10:57:49;98952.81;;;30.70;36.78
6387;BME280;3226;42.162;24.756;2023-08-01T11:00:17;98940.03;;;30.86;36.93
6387;BME280;3226;42.162;24.756;2023-08-01T11:02:49;98930.84;;;30.87;36.22
6387;BME280;3226;42.162;24.756;2023-08-01T11:05:18;98936.75;;;31.00;36.47
6387;BME280;3226;42.162;24.756;2023-08-01T11:07:53;98937.50;;;31.06;36.68
6387;BME280;3226;42.162;24.756;2023-08-01T11:10:24;98937.44;;;31.16;35.42
6387;BME280;3226;42.162;24.756;2023-08-01T11:12:54;98938.44;;;31.30;36.21
6387;BME280;3226;42.162;24.756;2023-08-01T11:15:22;98934.34;;;31.38;34.96
6387;BME280;3226;42.162;24.756;2023-08-01T11:17:52;98925.75;;;31.26;36.00
6387;BME280;3226;42.162;24.756;2023-08-01T11:20:23;98926.53;;;31.32;36.02
6387;BME280;3226;42.162;24.756;2023-08-01T11:22:53;98910.41;;;31.51;35.14
6387;BME280;3226;42.162;24.756;2023-08-01T11:25:33;98907.53;;;31.02;35.65
6387;BME280;3226;42.162;24.756;2023-08-01T11:28:04;98887.22;;;31.05;35.76
6387;BME280;3226;42.162;24.756;2023-08-01T11:30:33;98897.69;;;31.16;36.09
6387;BME280;3226;42.162;24.756;2023-08-01T11:33:01;98895.69;;;31.33;36.31
6387;BME280;3226;42.162;24.756;2023-08-01T11:35:31;98897.00;;;31.40;36.37
6387;BME280;3226;42.162;24.756;2023-08-01T11:37:59;98887.53;;;31.38;35.72
6387;BME280;3226;42.162;24.756;2023-08-01T11:40:27;98879.56;;;31.52;36.06
6387;BME280;3226;42.162;24.756;2023-08-01T11:42:56;98887.56;;;31.67;35.72
6387;BME280;3226;42.162;24.756;2023-08-01T11:45:26;98886.97;;;31.70;35.53
6387;BME280;3226;42.162;24.756;2023-08-01T11:47:54;98893.50;;;31.64;36.07
6387;BME280;3226;42.162;24.756;2023-08-01T11:50:24;98881.50;;;31.11;35.36
6387;BME280;3226;42.162;24.756;2023-08-01T11:52:52;98881.06;;;30.94;36.43
6387;BME280;3226;42.162;24.756;2023-08-01T11:55:21;98881.91;;;31.34;35.54
6387;BME280;3226;42.162;24.756;2023-08-01T11:57:54;98877.84;;;31.61;36.19
6387;BME280;3226;42.162;24.756;2023-08-01T12:00:23;98872.56;;;31.75;34.89
6387;BME280;3226;42.162;24.756;2023-08-01T12:03:03;98874.91;;;31.87;35.13
6387;BME280;3226;42.162;24.756;2023-08-01T12:05:31;98877.41;;;31.83;35.26
6387;BME280;3226;42.162;24.756;2023-08-01T12:08:10;98868.91;;;31.90;34.83
6387;BME280;3226;42.162;24.756;2023-08-01T12:10:39;98863.88;;;31.83;34.95
6387;BME280;3226;42.162;24.756;2023-08-01T12:13:19;98857.97;;;31.76;34.94
6387;BME280;3226;42.162;24.756;2023-08-01T12:15:47;98858.56;;;31.68;35.13
6387;BME280;3226;42.162;24.756;2023-08-01T12:18:25;98856.59;;;31.79;35.31
6387;BME280;3226;42.162;24.756;2023-08-01T12:20:56;98856.59;;;31.79;35.30
6387;BME280;3226;42.162;24.756;2023-08-01T12:23:24;98857.41;;;31.79;35.74
6387;BME280;3226;42.162;24.756;2023-08-01T12:25:52;98858.91;;;31.91;34.27
6387;BME280;3226;42.162;24.756;2023-08-01T12:28:20;98846.16;;;31.91;35.09
6387;BME280;3226;42.162;24.756;2023-08-01T12:30:48;98842.19;;;32.08;34.54
6387;BME280;3226;42.162;24.756;2023-08-01T12:33:17;98840.59;;;32.07;35.37
6387;BME280;3226;42.162;24.756;2023-08-01T12:35:47;98833.19;;;32.12;34.87
6387;BME280;3226;42.162;24.756;2023-08-01T12:38:15;98835.81;;;32.17;34.64
6387;BME280;3226;42.162;24.756;2023-08-01T12:40:43;98837.59;;;31.84;35.09
6387;BME280;3226;42.162;24.756;2023-08-01T12:43:11;98838.72;;;31.53;35.59
6387;BME280;3226;42.162;24.756;2023-08-01T12:45:39;98840.97;;;31.70;34.84
6387;BME280;3226;42.162;24.756;2023-08-01T12:48:07;98826.88;;;31.14;35.62
6387;BME280;3226;42.162;24.756;2023-08-01T12:50:35;98828.00;;;31.08;36.04
6387;BME280;3226;42.162;24.756;2023-08-01T12:53:04;98818.75;;;31.14;35.84
6387;BME280;3226;42.162;24.756;2023-08-01T12:55:32;98820.34;;;31.50;35.48
6387;BME280;3226;42.162;24.756;2023-08-01T12:58:00;98825.25;;;31.72;35.32
6387;BME280;3226;42.162;24.756;2023-08-01T13:00:29;98801.00;;;31.62;34.98
6387;BME280;3226;42.162;24.756;2023-08-01T13:02:57;98815.69;;;31.56;34.78
6387;BME280;3226;42.162;24.756;2023-08-01T13:05:25;98804.31;;;31.29;35.38
6387;BME280;3226;42.162;24.756;2023-08-01T13:07:53;98806.34;;;31.43;36.02
6387;BME280;3226;42.162;24.756;2023-08-01T13:10:22;98799.56;;;31.70;35.31
6387;BME280;3226;42.162;24.756;2023-08-01T13:12:50;98797.31;;;31.53;35.37
6387;BME280;3226;42.162;24.756;2023-08-01T13:15:18;98794.31;;;31.30;34.80
6387;BME280;3226;42.162;24.756;2023-08-01T13:17:46;98781.78;;;31.64;34.64